sensor_id;sensor_type;location;lat;lon;timestamp;temperature;humidity
506;DHT22;551;48.524;9.056;2022-09-16T00:01:18;13.60;1.00
506;DHT22;551;48.524;9.056;2022-09-16T00:03:45;13.60;1.00
506;DHT22;551;48.524;9.056;2022-09-16T00:06:19;13.70;1.00
506;DHT22;551;48.524;9.056;2022-09-16T00:08:45;13.60;1.00
506;DHT22;551;48.524;9.056;2022-09-16T00:11:11;13.70;1.00
506;DHT22;551;48.524;9.056;2022-09-16T00:13:37;13.70;1.00
506;DHT22;551;48.524;9.056;2022-09-16T00:16:07;13.80;1.00
506;DHT22;551;48.524;9.056;2022-09-16T00:18:33;13.80;1.00
506;DHT22;551;48.524;9.056;2022-09-16T00:20:59;13.70;1.00
506;DHT22;551;48.524;9.056;2022-09-16T00:23:24;13.70;1.00
506;DHT22;551;48.524;9.056;2022-09-16T00:25:51;13.70;1.00
506;DHT22;551;48.524;9.056;2022-09-16T00:28:17;13.70;1.00
506;DHT22;551;48.524;9.056;2022-09-16T00:30:43;13.70;1.00
506;DHT22;551;48.524;9.056;2022-09-16T00:33:09;13.80;1.00
506;DHT22;551;48.524;9.056;2022-09-16T00:35:35;13.80;1.00
506;DHT22;551;48.524;9.056;2022-09-16T00:38:00;13.80;1.00
506;DHT22;551;48.524;9.056;2022-09-16T00:40:26;13.80;1.00
506;DHT22;551;48.524;9.056;2022-09-16T00:42:51;13.80;1.00
506;DHT22;551;48.524;9.056;2022-09-16T00:45:19;13.80;1.00
506;DHT22;551;48.524;9.056;2022-09-16T00:48:04;13.80;1.00
506;DHT22;551;48.524;9.056;2022-09-16T00:50:44;13.80;1.00
506;DHT22;551;48.524;9.056;2022-09-16T00:53:17;13.80;1.00
506;DHT22;551;48.524;9.056;2022-09-16T00:55:44;13.80;1.00
506;DHT22;551;48.524;9.056;2022-09-16T00:58:24;13.80;1.00
506;DHT22;551;48.524;9.056;2022-09-16T01:00:52;13.70;1.00
506;DHT22;551;48.524;9.056;2022-09-16T01:03:18;13.70;1.00
506;DHT22;551;48.524;9.056;2022-09-16T01:05:45;13.60;1.00
506;DHT22;551;48.524;9.056;2022-09-16T01:08:11;13.60;1.00
506;DHT22;551;48.524;9.056;2022-09-16T01:10:39;13.60;1.00
506;DHT22;551;48.524;9.056;2022-09-16T01:13:07;13.50;1.00
506;DHT22;551;48.524;9.056;2022-09-16T01:15:38;13.50;1.00
506;DHT22;551;48.524;9.056;2022-09-16T01:18:11;13.40;1.00
506;DHT22;551;48.524;9.056;2022-09-16T01:21:04;13.40;1.00
506;DHT22;551;48.524;9.056;2022-09-16T01:32:38;13.40;1.00
506;DHT22;551;48.524;9.056;2022-09-16T01:38:08;13.40;1.00
506;DHT22;551;48.524;9.056;2022-09-16T01:43:27;13.40;1.00
506;DHT22;551;48.524;9.056;2022-09-16T01:45:58;13.40;1.00
506;DHT22;551;48.524;9.056;2022-09-16T01:53:55;13.40;1.00
506;DHT22;551;48.524;9.056;2022-09-16T01:56:34;13.40;1.00
506;DHT22;551;48.524;9.056;2022-09-16T01:59:08;13.40;1.00
506;DHT22;551;48.524;9.056;2022-09-16T02:04:20;13.40;1.00
506;DHT22;551;48.524;9.056;2022-09-16T02:06:48;13.50;1.00
506;DHT22;551;48.524;9.056;2022-09-16T02:09:29;13.50;1.00
506;DHT22;551;48.524;9.056;2022-09-16T02:11:57;13.60;1.00
506;DHT22;551;48.524;9.056;2022-09-16T02:14:32;13.70;1.00
506;DHT22;551;48.524;9.056;2022-09-16T02:17:03;13.60;1.00
506;DHT22;551;48.524;9.056;2022-09-16T02:19:36;13.60;1.00
506;DHT22;551;48.524;9.056;2022-09-16T02:22:07;13.60;1.00
506;DHT22;551;48.524;9.056;2022-09-16T02:24:34;13.60;1.00
506;DHT22;551;48.524;9.056;2022-09-16T02:27:04;13.70;1.00
506;DHT22;551;48.524;9.056;2022-09-16T02:29:39;13.60;1.00
506;DHT22;551;48.524;9.056;2022-09-16T02:32:08;13.60;1.00
506;DHT22;551;48.524;9.056;2022-09-16T02:34:41;13.50;1.00
506;DHT22;551;48.524;9.056;2022-09-16T02:37:13;13.50;1.00
506;DHT22;551;48.524;9.056;2022-09-16T02:39:40;13.50;1.00
506;DHT22;551;48.524;9.056;2022-09-16T02:42:09;13.40;1.00
506;DHT22;551;48.524;9.056;2022-09-16T02:44:34;13.50;1.00
506;DHT22;551;48.524;9.056;2022-09-16T02:47:11;13.40;1.00
506;DHT22;551;48.524;9.056;2022-09-16T02:55:21;13.20;1.00
506;DHT22;551;48.524;9.056;2022-09-16T02:57:49;13.20;1.00
506;DHT22;551;48.524;9.056;2022-09-16T03:00:15;13.20;1.00
506;DHT22;551;48.524;9.056;2022-09-16T03:02:40;13.20;1.00
506;DHT22;551;48.524;9.056;2022-09-16T03:05:06;13.10;1.00
506;DHT22;551;48.524;9.056;2022-09-16T03:07:34;13.10;1.00
506;DHT22;551;48.524;9.056;2022-09-16T03:10:00;13.00;1.00
506;DHT22;551;48.524;9.056;2022-09-16T03:23:18;12.90;1.00
506;DHT22;551;48.524;9.056;2022-09-16T03:26:04;12.90;1.00
506;DHT22;551;48.524;9.056;2022-09-16T03:28:43;13.00;1.00
506;DHT22;551;48.524;9.056;2022-09-16T03:31:16;13.00;1.00
506;DHT22;551;48.524;9.056;2022-09-16T03:36:30;13.20;1.00
506;DHT22;551;48.524;9.056;2022-09-16T03:38:59;13.30;1.00
506;DHT22;551;48.524;9.056;2022-09-16T03:41:28;13.30;1.00
506;DHT22;551;48.524;9.056;2022-09-16T03:43:55;13.40;1.00
506;DHT22;551;48.524;9.056;2022-09-16T03:46:21;13.50;1.00
506;DHT22;551;48.524;9.056;2022-09-16T03:48:47;13.50;1.00
506;DHT22;551;48.524;9.056;2022-09-16T03:51:13;13.50;1.00
506;DHT22;551;48.524;9.056;2022-09-16T03:53:39;13.50;1.00
506;DHT22;551;48.524;9.056;2022-09-16T03:56:05;13.60;1.00
506;DHT22;551;48.524;9.056;2022-09-16T03:58:30;13.70;1.00
506;DHT22;551;48.524;9.056;2022-09-16T04:00:56;13.70;1.00
506;DHT22;551;48.524;9.056;2022-09-16T04:03:21;13.70;1.00
506;DHT22;551;48.524;9.056;2022-09-16T04:05:52;13.80;1.00
506;DHT22;551;48.524;9.056;2022-09-16T04:08:18;13.80;1.00
506;DHT22;551;48.524;9.056;2022-09-16T04:10:55;13.80;1.00
506;DHT22;551;48.524;9.056;2022-09-16T04:13:22;13.80;1.00
506;DHT22;551;48.524;9.056;2022-09-16T04:15:48;13.80;1.00
506;DHT22;551;48.524;9.056;2022-09-16T04:18:14;13.80;1.00
506;DHT22;551;48.524;9.056;2022-09-16T04:20:39;13.80;1.00
506;DHT22;551;48.524;9.056;2022-09-16T04:23:05;13.90;1.00
506;DHT22;551;48.524;9.056;2022-09-16T04:25:30;13.80;1.00
506;DHT22;551;48.524;9.056;2022-09-16T04:27:56;13.80;1.00
506;DHT22;551;48.524;9.056;2022-09-16T04:30:22;13.80;1.00
506;DHT22;551;48.524;9.056;2022-09-16T04:32:52;13.80;1.00
506;DHT22;551;48.524;9.056;2022-09-16T04:35:18;13.80;1.00
506;DHT22;551;48.524;9.056;2022-09-16T04:37:44;13.70;1.00
506;DHT22;551;48.524;9.056;2022-09-16T04:40:09;13.70;1.00
506;DHT22;551;48.524;9.056;2022-09-16T04:42:35;13.80;1.00
506;DHT22;551;48.524;9.056;2022-09-16T04:45:00;13.80;1.00
506;DHT22;551;48.524;9.056;2022-09-16T04:47:26;13.90;1.00
506;DHT22;551;48.524;9.056;2022-09-16T04:49:51;13.90;1.00
506;DHT22;551;48.524;9.056;2022-09-16T04:52:17;13.90;1.00
506;DHT22;551;48.524;9.056;2022-09-16T04:54:42;13.90;1.00
506;DHT22;551;48.524;9.056;2022-09-16T04:57:08;13.90;1.00
506;DHT22;551;48.524;9.056;2022-09-16T04:59:33;13.80;1.00
506;DHT22;551;48.524;9.056;2022-09-16T05:01:59;13.80;1.00
506;DHT22;551;48.524;9.056;2022-09-16T05:04:25;13.90;1.00
506;DHT22;551;48.524;9.056;2022-09-16T05:06:50;13.90;1.00
506;DHT22;551;48.524;9.056;2022-09-16T05:09:16;13.90;1.00
506;DHT22;551;48.524;9.056;2022-09-16T05:11:42;13.90;1.00
506;DHT22;551;48.524;9.056;2022-09-16T05:14:12;13.90;1.00
506;DHT22;551;48.524;9.056;2022-09-16T05:16:38;14.00;1.00
506;DHT22;551;48.524;9.056;2022-09-16T05:19:04;14.00;1.00
506;DHT22;551;48.524;9.056;2022-09-16T05:21:32;14.10;1.00
506;DHT22;551;48.524;9.056;2022-09-16T05:24:01;14.10;1.00
506;DHT22;551;48.524;9.056;2022-09-16T05:26:30;14.20;1.00
506;DHT22;551;48.524;9.056;2022-09-16T05:28:59;14.20;1.00
506;DHT22;551;48.524;9.056;2022-09-16T05:31:27;14.30;1.00
506;DHT22;551;48.524;9.056;2022-09-16T05:34:00;14.30;1.00
506;DHT22;551;48.524;9.056;2022-09-16T05:36:28;14.40;1.00
506;DHT22;551;48.524;9.056;2022-09-16T05:38:54;14.40;1.00
506;DHT22;551;48.524;9.056;2022-09-16T05:41:20;14.40;1.00
506;DHT22;551;48.524;9.056;2022-09-16T05:43:46;14.40;1.00
506;DHT22;551;48.524;9.056;2022-09-16T05:46:18;14.40;1.00
506;DHT22;551;48.524;9.056;2022-09-16T05:48:44;14.40;1.00
506;DHT22;551;48.524;9.056;2022-09-16T05:51:12;14.40;1.00
506;DHT22;551;48.524;9.056;2022-09-16T05:53:38;14.50;1.00
506;DHT22;551;48.524;9.056;2022-09-16T05:56:06;14.50;1.00
506;DHT22;551;48.524;9.056;2022-09-16T05:58:36;14.50;1.00
506;DHT22;551;48.524;9.056;2022-09-16T06:01:04;14.50;1.00
506;DHT22;551;48.524;9.056;2022-09-16T06:03:31;14.50;1.00
506;DHT22;551;48.524;9.056;2022-09-16T06:08:36;14.60;1.00
506;DHT22;551;48.524;9.056;2022-09-16T06:11:06;14.60;1.00
506;DHT22;551;48.524;9.056;2022-09-16T06:13:32;14.60;1.00
506;DHT22;551;48.524;9.056;2022-09-16T06:15:59;14.60;1.00
506;DHT22;551;48.524;9.056;2022-09-16T06:18:28;14.70;1.00
506;DHT22;551;48.524;9.056;2022-09-16T06:20:54;14.70;1.00
506;DHT22;551;48.524;9.056;2022-09-16T06:23:20;14.70;1.00
506;DHT22;551;48.524;9.056;2022-09-16T06:25:46;14.70;1.00
506;DHT22;551;48.524;9.056;2022-09-16T06:28:12;14.70;1.00
506;DHT22;551;48.524;9.056;2022-09-16T06:30:38;14.60;1.00
506;DHT22;551;48.524;9.056;2022-09-16T06:33:04;14.60;1.00
506;DHT22;551;48.524;9.056;2022-09-16T06:35:29;14.50;1.00
506;DHT22;551;48.524;9.056;2022-09-16T06:37:55;14.50;1.00
506;DHT22;551;48.524;9.056;2022-09-16T06:40:21;14.60;1.00
506;DHT22;551;48.524;9.056;2022-09-16T06:42:46;14.60;1.00
506;DHT22;551;48.524;9.056;2022-09-16T06:45:12;14.60;1.00
506;DHT22;551;48.524;9.056;2022-09-16T06:47:38;14.60;1.00
506;DHT22;551;48.524;9.056;2022-09-16T06:50:04;14.60;1.00
506;DHT22;551;48.524;9.056;2022-09-16T06:52:30;14.60;1.00
506;DHT22;551;48.524;9.056;2022-09-16T06:54:56;14.60;1.00
506;DHT22;551;48.524;9.056;2022-09-16T06:57:21;14.60;1.00
506;DHT22;551;48.524;9.056;2022-09-16T06:59:49;14.60;1.00
506;DHT22;551;48.524;9.056;2022-09-16T07:02:15;14.50;1.00
506;DHT22;551;48.524;9.056;2022-09-16T07:04:40;14.50;1.00
506;DHT22;551;48.524;9.056;2022-09-16T07:07:06;14.50;1.00
506;DHT22;551;48.524;9.056;2022-09-16T07:09:32;14.50;1.00
506;DHT22;551;48.524;9.056;2022-09-16T07:11:58;14.50;1.00
506;DHT22;551;48.524;9.056;2022-09-16T07:14:24;14.40;1.00
506;DHT22;551;48.524;9.056;2022-09-16T07:16:50;14.40;1.00
506;DHT22;551;48.524;9.056;2022-09-16T07:19:16;14.40;1.00
506;DHT22;551;48.524;9.056;2022-09-16T07:21:41;14.40;1.00
506;DHT22;551;48.524;9.056;2022-09-16T07:24:10;14.40;1.00
506;DHT22;551;48.524;9.056;2022-09-16T07:26:35;14.40;1.00
506;DHT22;551;48.524;9.056;2022-09-16T07:29:05;14.30;1.00
506;DHT22;551;48.524;9.056;2022-09-16T07:31:33;14.30;1.00
506;DHT22;551;48.524;9.056;2022-09-16T07:34:00;14.30;1.00
506;DHT22;551;48.524;9.056;2022-09-16T07:36:28;14.30;1.00
506;DHT22;551;48.524;9.056;2022-09-16T07:38:55;14.40;1.00
506;DHT22;551;48.524;9.056;2022-09-16T07:41:27;14.40;1.00
506;DHT22;551;48.524;9.056;2022-09-16T07:43:54;14.40;1.00
506;DHT22;551;48.524;9.056;2022-09-16T07:46:19;14.40;1.00
506;DHT22;551;48.524;9.056;2022-09-16T07:48:47;14.40;1.00
506;DHT22;551;48.524;9.056;2022-09-16T07:51:15;14.40;1.00
506;DHT22;551;48.524;9.056;2022-09-16T07:53:42;14.40;1.00
506;DHT22;551;48.524;9.056;2022-09-16T07:56:10;14.50;1.00
506;DHT22;551;48.524;9.056;2022-09-16T07:58:37;14.60;1.00
506;DHT22;551;48.524;9.056;2022-09-16T08:01:04;14.60;1.00
506;DHT22;551;48.524;9.056;2022-09-16T08:03:31;14.60;1.00
506;DHT22;551;48.524;9.056;2022-09-16T08:06:01;14.70;1.00
506;DHT22;551;48.524;9.056;2022-09-16T08:08:28;14.60;1.00
506;DHT22;551;48.524;9.056;2022-09-16T08:10:55;14.70;1.00
506;DHT22;551;48.524;9.056;2022-09-16T08:13:21;14.70;1.00
506;DHT22;551;48.524;9.056;2022-09-16T08:16:16;14.70;1.00
506;DHT22;551;48.524;9.056;2022-09-16T08:18:42;14.60;1.00
506;DHT22;551;48.524;9.056;2022-09-16T08:21:11;14.60;1.00
506;DHT22;551;48.524;9.056;2022-09-16T08:23:38;14.60;1.00
506;DHT22;551;48.524;9.056;2022-09-16T08:26:04;14.60;1.00
506;DHT22;551;48.524;9.056;2022-09-16T08:28:31;14.60;1.00
506;DHT22;551;48.524;9.056;2022-09-16T08:31:01;14.60;1.00
506;DHT22;551;48.524;9.056;2022-09-16T08:33:27;14.60;1.00
506;DHT22;551;48.524;9.056;2022-09-16T08:36:04;14.70;1.00
506;DHT22;551;48.524;9.056;2022-09-16T08:38:30;14.80;1.00
506;DHT22;551;48.524;9.056;2022-09-16T08:41:20;14.90;1.00
506;DHT22;551;48.524;9.056;2022-09-16T08:46:54;15.20;1.00
506;DHT22;551;48.524;9.056;2022-09-16T08:49:37;15.20;1.00
506;DHT22;551;48.524;9.056;2022-09-16T08:52:30;15.30;1.00
506;DHT22;551;48.524;9.056;2022-09-16T08:55:08;15.20;1.00
506;DHT22;551;48.524;9.056;2022-09-16T08:57:41;15.20;1.00
506;DHT22;551;48.524;9.056;2022-09-16T09:00:13;15.30;1.00
506;DHT22;551;48.524;9.056;2022-09-16T09:08:16;15.70;1.00
506;DHT22;551;48.524;9.056;2022-09-16T09:11:21;15.80;1.00
506;DHT22;551;48.524;9.056;2022-09-16T09:14:00;15.90;1.00
506;DHT22;551;48.524;9.056;2022-09-16T09:16:40;15.90;1.00
506;DHT22;551;48.524;9.056;2022-09-16T09:27:26;15.90;1.00
506;DHT22;551;48.524;9.056;2022-09-16T09:30:16;15.90;1.00
506;DHT22;551;48.524;9.056;2022-09-16T09:43:12;15.70;1.00
506;DHT22;551;48.524;9.056;2022-09-16T09:45:47;15.70;1.00
506;DHT22;551;48.524;9.056;2022-09-16T09:48:19;15.80;1.00
506;DHT22;551;48.524;9.056;2022-09-16T09:50:47;15.80;1.00
506;DHT22;551;48.524;9.056;2022-09-16T09:53:27;15.90;1.00
506;DHT22;551;48.524;9.056;2022-09-16T09:56:07;15.90;1.00
506;DHT22;551;48.524;9.056;2022-09-16T09:58:43;16.00;1.00
506;DHT22;551;48.524;9.056;2022-09-16T10:01:12;16.00;1.00
506;DHT22;551;48.524;9.056;2022-09-16T10:03:40;15.90;1.00
506;DHT22;551;48.524;9.056;2022-09-16T10:06:06;16.10;1.00
506;DHT22;551;48.524;9.056;2022-09-16T10:08:44;16.40;1.00
506;DHT22;551;48.524;9.056;2022-09-16T10:11:30;17.40;1.00
506;DHT22;551;48.524;9.056;2022-09-16T12:49:23;20.70;1.00
506;DHT22;551;48.524;9.056;2022-09-16T12:52:08;20.10;1.00
506;DHT22;551;48.524;9.056;2022-09-16T12:54:54;19.80;1.00
506;DHT22;551;48.524;9.056;2022-09-16T13:02:31;18.80;1.00
506;DHT22;551;48.524;9.056;2022-09-16T13:07:51;18.40;1.00
506;DHT22;551;48.524;9.056;2022-09-16T13:12:53;18.10;1.00
506;DHT22;551;48.524;9.056;2022-09-16T13:15:24;18.00;1.00
506;DHT22;551;48.524;9.056;2022-09-16T13:17:50;18.00;1.00
506;DHT22;551;48.524;9.056;2022-09-16T13:20:33;18.20;1.00
506;DHT22;551;48.524;9.056;2022-09-16T13:23:12;18.40;1.00
506;DHT22;551;48.524;9.056;2022-09-16T13:26:05;19.30;1.00
506;DHT22;551;48.524;9.056;2022-09-16T13:34:00;23.60;1.00
506;DHT22;551;48.524;9.056;2022-09-16T13:39:00;23.80;1.00
506;DHT22;551;48.524;9.056;2022-09-16T13:41:41;23.30;1.00
506;DHT22;551;48.524;9.056;2022-09-16T13:44:26;22.50;1.00
506;DHT22;551;48.524;9.056;2022-09-16T13:46:52;22.00;1.00
506;DHT22;551;48.524;9.056;2022-09-16T13:49:22;21.40;1.00
506;DHT22;551;48.524;9.056;2022-09-16T13:51:50;21.30;1.00
506;DHT22;551;48.524;9.056;2022-09-16T13:57:17;20.70;1.00
506;DHT22;551;48.524;9.056;2022-09-16T14:05:21;20.10;1.00
506;DHT22;551;48.524;9.056;2022-09-16T14:07:58;19.80;1.00
506;DHT22;551;48.524;9.056;2022-09-16T14:15:44;19.50;1.00
506;DHT22;551;48.524;9.056;2022-09-16T14:18:13;19.80;1.00
506;DHT22;551;48.524;9.056;2022-09-16T14:20:54;20.20;1.00
506;DHT22;551;48.524;9.056;2022-09-16T14:23:22;20.20;1.00
506;DHT22;551;48.524;9.056;2022-09-16T14:25:48;20.30;1.00
506;DHT22;551;48.524;9.056;2022-09-16T14:28:24;20.40;1.00
506;DHT22;551;48.524;9.056;2022-09-16T14:30:58;20.30;1.00
506;DHT22;551;48.524;9.056;2022-09-16T14:33:44;20.10;1.00
506;DHT22;551;48.524;9.056;2022-09-16T14:36:36;20.00;1.00
506;DHT22;551;48.524;9.056;2022-09-16T14:39:23;19.80;1.00
506;DHT22;551;48.524;9.056;2022-09-16T14:41:50;19.70;1.00
506;DHT22;551;48.524;9.056;2022-09-16T14:49:12;19.10;1.00
506;DHT22;551;48.524;9.056;2022-09-16T14:51:42;19.00;1.00
506;DHT22;551;48.524;9.056;2022-09-16T14:54:16;19.00;1.00
506;DHT22;551;48.524;9.056;2022-09-16T14:56:53;19.00;1.00
506;DHT22;551;48.524;9.056;2022-09-16T14:59:20;18.90;1.00
506;DHT22;551;48.524;9.056;2022-09-16T15:01:47;18.90;1.00
506;DHT22;551;48.524;9.056;2022-09-16T15:04:24;18.90;1.00
506;DHT22;551;48.524;9.056;2022-09-16T15:06:53;18.70;1.00
506;DHT22;551;48.524;9.056;2022-09-16T15:09:24;18.60;1.00
506;DHT22;551;48.524;9.056;2022-09-16T15:11:55;18.40;1.00
506;DHT22;551;48.524;9.056;2022-09-16T15:14:22;18.40;1.00
506;DHT22;551;48.524;9.056;2022-09-16T15:16:56;18.30;1.00
506;DHT22;551;48.524;9.056;2022-09-16T15:19:30;18.30;1.00
506;DHT22;551;48.524;9.056;2022-09-16T15:21:56;18.40;1.00
506;DHT22;551;48.524;9.056;2022-09-16T15:24:26;18.60;1.00
506;DHT22;551;48.524;9.056;2022-09-16T15:26:53;18.80;1.00
506;DHT22;551;48.524;9.056;2022-09-16T15:31:48;19.10;1.00
506;DHT22;551;48.524;9.056;2022-09-16T15:34:18;19.20;1.00
506;DHT22;551;48.524;9.056;2022-09-16T15:36:52;19.10;1.00
506;DHT22;551;48.524;9.056;2022-09-16T15:39:27;19.00;1.00
506;DHT22;551;48.524;9.056;2022-09-16T15:44:51;18.70;1.00
506;DHT22;551;48.524;9.056;2022-09-16T15:47:20;18.70;1.00
506;DHT22;551;48.524;9.056;2022-09-16T15:50:09;18.60;1.00
506;DHT22;551;48.524;9.056;2022-09-16T15:58:14;18.30;1.00
506;DHT22;551;48.524;9.056;2022-09-16T16:03:31;18.30;1.00
506;DHT22;551;48.524;9.056;2022-09-16T16:05:59;18.20;1.00
506;DHT22;551;48.524;9.056;2022-09-16T16:08:43;18.10;1.00
506;DHT22;551;48.524;9.056;2022-09-16T16:11:12;18.00;1.00
506;DHT22;551;48.524;9.056;2022-09-16T16:57:32;17.30;1.00
506;DHT22;551;48.524;9.056;2022-09-16T16:59:58;17.20;1.00
506;DHT22;551;48.524;9.056;2022-09-16T17:02:23;17.10;1.00
506;DHT22;551;48.524;9.056;2022-09-16T17:04:49;17.00;1.00
506;DHT22;551;48.524;9.056;2022-09-16T17:07:14;16.90;1.00
506;DHT22;551;48.524;9.056;2022-09-16T17:09:41;16.90;1.00
506;DHT22;551;48.524;9.056;2022-09-16T17:12:07;16.80;1.00
506;DHT22;551;48.524;9.056;2022-09-16T17:14:33;16.70;1.00
506;DHT22;551;48.524;9.056;2022-09-16T17:16:59;16.70;1.00
506;DHT22;551;48.524;9.056;2022-09-16T17:19:26;16.60;1.00
506;DHT22;551;48.524;9.056;2022-09-16T17:21:53;16.60;1.00
506;DHT22;551;48.524;9.056;2022-09-16T17:24:20;16.40;1.00
506;DHT22;551;48.524;9.056;2022-09-16T17:26:46;16.40;1.00
506;DHT22;551;48.524;9.056;2022-09-16T17:29:12;16.30;1.00
506;DHT22;551;48.524;9.056;2022-09-16T17:31:38;16.20;1.00
506;DHT22;551;48.524;9.056;2022-09-16T17:34:07;16.10;1.00
506;DHT22;551;48.524;9.056;2022-09-16T17:36:36;16.00;1.00
506;DHT22;551;48.524;9.056;2022-09-16T17:39:05;15.90;1.00
506;DHT22;551;48.524;9.056;2022-09-16T17:41:31;15.80;1.00
506;DHT22;551;48.524;9.056;2022-09-16T17:43:57;15.60;1.00
506;DHT22;551;48.524;9.056;2022-09-16T17:46:25;15.50;1.00
506;DHT22;551;48.524;9.056;2022-09-16T17:49:03;15.30;1.00
506;DHT22;551;48.524;9.056;2022-09-16T17:51:29;15.10;1.00
506;DHT22;551;48.524;9.056;2022-09-16T17:53:55;15.00;1.00
506;DHT22;551;48.524;9.056;2022-09-16T17:56:20;14.90;1.00
506;DHT22;551;48.524;9.056;2022-09-16T17:58:47;14.80;1.00
506;DHT22;551;48.524;9.056;2022-09-16T18:01:21;14.60;1.00
506;DHT22;551;48.524;9.056;2022-09-16T18:03:48;14.50;1.00
506;DHT22;551;48.524;9.056;2022-09-16T18:06:19;14.40;1.00
506;DHT22;551;48.524;9.056;2022-09-16T18:08:46;14.30;1.00
506;DHT22;551;48.524;9.056;2022-09-16T18:11:13;14.30;1.00
506;DHT22;551;48.524;9.056;2022-09-16T18:13:39;14.30;1.00
506;DHT22;551;48.524;9.056;2022-09-16T18:16:17;14.30;1.00
506;DHT22;551;48.524;9.056;2022-09-16T18:18:44;14.30;1.00
506;DHT22;551;48.524;9.056;2022-09-16T18:21:16;14.20;1.00
506;DHT22;551;48.524;9.056;2022-09-16T18:23:44;14.30;1.00
506;DHT22;551;48.524;9.056;2022-09-16T18:26:11;14.20;1.00
506;DHT22;551;48.524;9.056;2022-09-16T18:28:40;14.10;1.00
506;DHT22;551;48.524;9.056;2022-09-16T18:31:11;14.10;1.00
506;DHT22;551;48.524;9.056;2022-09-16T18:33:38;14.20;1.00
506;DHT22;551;48.524;9.056;2022-09-16T18:36:06;14.30;1.00
506;DHT22;551;48.524;9.056;2022-09-16T18:38:32;14.30;1.00
506;DHT22;551;48.524;9.056;2022-09-16T18:41:19;14.40;1.00
506;DHT22;551;48.524;9.056;2022-09-16T18:43:50;14.40;1.00
506;DHT22;551;48.524;9.056;2022-09-16T18:48:43;14.40;1.00
506;DHT22;551;48.524;9.056;2022-09-16T18:51:30;14.40;1.00
506;DHT22;551;48.524;9.056;2022-09-16T18:53:57;14.50;1.00
506;DHT22;551;48.524;9.056;2022-09-16T18:56:27;14.50;1.00
506;DHT22;551;48.524;9.056;2022-09-16T18:58:55;14.50;1.00
506;DHT22;551;48.524;9.056;2022-09-16T19:01:25;14.50;1.00
506;DHT22;551;48.524;9.056;2022-09-16T19:03:53;14.60;1.00
506;DHT22;551;48.524;9.056;2022-09-16T19:06:19;14.60;1.00
506;DHT22;551;48.524;9.056;2022-09-16T19:08:45;14.70;1.00
506;DHT22;551;48.524;9.056;2022-09-16T19:11:11;14.60;1.00
506;DHT22;551;48.524;9.056;2022-09-16T19:13:37;14.60;1.00
506;DHT22;551;48.524;9.056;2022-09-16T19:16:04;14.70;1.00
506;DHT22;551;48.524;9.056;2022-09-16T19:18:30;14.70;1.00
506;DHT22;551;48.524;9.056;2022-09-16T19:20:56;14.60;1.00
506;DHT22;551;48.524;9.056;2022-09-16T19:23:22;14.60;1.00
506;DHT22;551;48.524;9.056;2022-09-16T19:25:51;14.70;1.00
506;DHT22;551;48.524;9.056;2022-09-16T19:28:17;14.60;1.00
506;DHT22;551;48.524;9.056;2022-09-16T19:30:43;14.60;1.00
506;DHT22;551;48.524;9.056;2022-09-16T19:33:09;14.50;1.00
506;DHT22;551;48.524;9.056;2022-09-16T19:35:35;14.50;1.00
506;DHT22;551;48.524;9.056;2022-09-16T19:38:00;14.50;1.00
506;DHT22;551;48.524;9.056;2022-09-16T19:40:27;14.50;1.00
506;DHT22;551;48.524;9.056;2022-09-16T19:42:53;14.40;1.00
506;DHT22;551;48.524;9.056;2022-09-16T19:45:19;14.40;1.00
506;DHT22;551;48.524;9.056;2022-09-16T19:47:45;14.30;1.00
506;DHT22;551;48.524;9.056;2022-09-16T19:50:10;14.20;1.00
506;DHT22;551;48.524;9.056;2022-09-16T19:52:37;14.10;1.00
506;DHT22;551;48.524;9.056;2022-09-16T19:55:07;14.00;1.00
506;DHT22;551;48.524;9.056;2022-09-16T19:57:34;14.00;1.00
506;DHT22;551;48.524;9.056;2022-09-16T20:00:00;13.90;1.00
506;DHT22;551;48.524;9.056;2022-09-16T20:02:25;13.80;1.00
506;DHT22;551;48.524;9.056;2022-09-16T20:04:51;13.80;1.00
506;DHT22;551;48.524;9.056;2022-09-16T20:07:16;13.80;1.00
506;DHT22;551;48.524;9.056;2022-09-16T20:09:44;13.70;1.00
506;DHT22;551;48.524;9.056;2022-09-16T20:12:10;13.70;1.00
506;DHT22;551;48.524;9.056;2022-09-16T20:14:35;13.70;1.00
506;DHT22;551;48.524;9.056;2022-09-16T20:17:02;13.60;1.00
506;DHT22;551;48.524;9.056;2022-09-16T20:19:28;13.50;1.00
506;DHT22;551;48.524;9.056;2022-09-16T20:21:53;13.50;1.00
506;DHT22;551;48.524;9.056;2022-09-16T20:24:21;13.50;1.00
506;DHT22;551;48.524;9.056;2022-09-16T20:26:51;13.40;1.00
506;DHT22;551;48.524;9.056;2022-09-16T20:29:18;13.40;1.00
506;DHT22;551;48.524;9.056;2022-09-16T20:31:45;13.40;1.00
506;DHT22;551;48.524;9.056;2022-09-16T20:34:12;13.30;1.00
506;DHT22;551;48.524;9.056;2022-09-16T20:36:39;13.30;1.00
506;DHT22;551;48.524;9.056;2022-09-16T20:39:07;13.30;1.00
506;DHT22;551;48.524;9.056;2022-09-16T20:41:35;13.30;1.00
506;DHT22;551;48.524;9.056;2022-09-16T20:44:01;13.40;1.00
506;DHT22;551;48.524;9.056;2022-09-16T20:46:30;13.30;1.00
506;DHT22;551;48.524;9.056;2022-09-16T20:48:58;13.30;1.00
506;DHT22;551;48.524;9.056;2022-09-16T20:51:27;13.20;1.00
506;DHT22;551;48.524;9.056;2022-09-16T20:53:56;13.20;1.00
506;DHT22;551;48.524;9.056;2022-09-16T20:56:22;13.10;1.00
506;DHT22;551;48.524;9.056;2022-09-16T20:58:48;13.00;1.00
506;DHT22;551;48.524;9.056;2022-09-16T21:01:21;13.00;1.00
506;DHT22;551;48.524;9.056;2022-09-16T21:03:52;12.90;1.00
506;DHT22;551;48.524;9.056;2022-09-16T21:06:18;12.80;1.00
506;DHT22;551;48.524;9.056;2022-09-16T21:08:44;12.80;1.00
506;DHT22;551;48.524;9.056;2022-09-16T21:11:15;12.80;1.00
506;DHT22;551;48.524;9.056;2022-09-16T21:13:43;12.70;1.00
506;DHT22;551;48.524;9.056;2022-09-16T21:16:11;12.70;1.00
506;DHT22;551;48.524;9.056;2022-09-16T21:18:37;12.60;1.00
506;DHT22;551;48.524;9.056;2022-09-16T21:21:08;12.50;1.00
506;DHT22;551;48.524;9.056;2022-09-16T21:23:35;12.50;1.00
506;DHT22;551;48.524;9.056;2022-09-16T21:26:10;12.50;1.00
506;DHT22;551;48.524;9.056;2022-09-16T21:28:37;12.50;1.00
506;DHT22;551;48.524;9.056;2022-09-16T21:31:08;12.50;1.00
506;DHT22;551;48.524;9.056;2022-09-16T21:33:35;12.60;1.00
506;DHT22;551;48.524;9.056;2022-09-16T21:36:02;12.50;1.00
506;DHT22;551;48.524;9.056;2022-09-16T21:38:28;12.60;1.00
506;DHT22;551;48.524;9.056;2022-09-16T21:40:59;12.50;1.00
506;DHT22;551;48.524;9.056;2022-09-16T21:43:27;12.50;1.00
506;DHT22;551;48.524;9.056;2022-09-16T21:45:53;12.50;1.00
506;DHT22;551;48.524;9.056;2022-09-16T21:48:19;12.50;1.00
506;DHT22;551;48.524;9.056;2022-09-16T21:50:46;12.50;1.00
506;DHT22;551;48.524;9.056;2022-09-16T21:53:12;12.50;1.00
506;DHT22;551;48.524;9.056;2022-09-16T21:55:38;12.50;1.00
506;DHT22;551;48.524;9.056;2022-09-16T21:58:05;12.50;1.00
506;DHT22;551;48.524;9.056;2022-09-16T22:00:32;12.50;1.00
506;DHT22;551;48.524;9.056;2022-09-16T22:02:58;12.50;1.00
506;DHT22;551;48.524;9.056;2022-09-16T22:05:23;12.50;1.00
506;DHT22;551;48.524;9.056;2022-09-16T22:07:49;12.50;1.00
506;DHT22;551;48.524;9.056;2022-09-16T22:10:15;12.50;1.00
506;DHT22;551;48.524;9.056;2022-09-16T22:12:40;12.50;1.00
506;DHT22;551;48.524;9.056;2022-09-16T22:15:06;12.50;1.00
506;DHT22;551;48.524;9.056;2022-09-16T22:17:32;12.60;1.00
506;DHT22;551;48.524;9.056;2022-09-16T22:19:57;12.50;1.00
506;DHT22;551;48.524;9.056;2022-09-16T22:22:23;12.50;1.00
506;DHT22;551;48.524;9.056;2022-09-16T22:24:48;12.50;1.00
506;DHT22;551;48.524;9.056;2022-09-16T22:27:14;12.50;1.00
506;DHT22;551;48.524;9.056;2022-09-16T22:29:39;12.40;1.00